createdAt,value
2018-03-14T00:00:27.864Z,94827
2018-03-14T00:02:56.045Z,94824
2018-03-14T00:05:24.176Z,94829
2018-03-14T00:07:52.282Z,94829
2018-03-14T00:10:20.406Z,94832
2018-03-14T00:12:48.520Z,94829
2018-03-14T00:15:16.637Z,94836
2018-03-14T00:17:44.748Z,94839
2018-03-14T00:20:12.883Z,94851
2018-03-14T00:22:41.071Z,94848
2018-03-14T00:25:09.606Z,94846
2018-03-14T00:27:42.947Z,94852
2018-03-14T00:30:11.251Z,94845
2018-03-14T00:32:39.410Z,94859
2018-03-14T00:35:11.593Z,94867
2018-03-14T00:37:39.720Z,94867
2018-03-14T00:40:07.853Z,94869
2018-03-14T00:42:35.964Z,94874
2018-03-14T00:45:04.850Z,94866
2018-03-14T00:47:33.740Z,94873
2018-03-14T00:50:01.961Z,94871
2018-03-14T00:52:30.077Z,94876
2018-03-14T00:54:59.938Z,94884
2018-03-14T00:57:28.063Z,94880
2018-03-14T00:59:56.191Z,94876
2018-03-14T01:02:24.447Z,94878
2018-03-14T01:04:52.567Z,94886
2018-03-14T01:07:20.727Z,94880
2018-03-14T01:09:48.886Z,94884
2018-03-14T01:12:17.624Z,94872
2018-03-14T01:14:46.055Z,94882
2018-03-14T01:17:18.532Z,94891
2018-03-14T01:19:46.712Z,94874
2018-03-14T01:22:14.815Z,94892
2018-03-14T01:24:43.040Z,94889
2018-03-14T01:27:11.161Z,94883
2018-03-14T01:29:40.168Z,94874
2018-03-14T01:32:08.276Z,94886
2018-03-14T01:34:36.468Z,94887
2018-03-14T01:37:04.590Z,94880
2018-03-14T01:39:32.712Z,94881
2018-03-14T01:42:00.855Z,94885
2018-03-14T01:44:29.965Z,94897
2018-03-14T01:46:58.064Z,94894
2018-03-14T01:49:26.182Z,94892
2018-03-14T01:51:54.391Z,94905
2018-03-14T01:54:22.535Z,94910
2018-03-14T01:56:50.692Z,94899
2018-03-14T01:59:18.803Z,94904
2018-03-14T02:01:46.932Z,94900
2018-03-14T02:04:15.060Z,94902
2018-03-14T02:06:43.200Z,94906
2018-03-14T02:09:15.337Z,94906
2018-03-14T02:11:47.577Z,94907
2018-03-14T02:14:15.749Z,94911
2018-03-14T02:16:43.944Z,94906
2018-03-14T02:19:12.271Z,94897
2018-03-14T02:21:40.375Z,94901
2018-03-14T02:24:08.673Z,94911
2018-03-14T02:26:36.979Z,94906
2018-03-14T02:29:05.134Z,94907
2018-03-14T02:31:33.262Z,94904
2018-03-14T02:34:01.399Z,94899
2018-03-14T02:36:47.426Z,94901
2018-03-14T02:39:15.678Z,94903
2018-03-14T02:41:43.944Z,94912
2018-03-14T02:44:12.197Z,94910
2018-03-14T02:46:40.465Z,94911
2018-03-14T02:49:09.347Z,94910
2018-03-14T02:51:37.548Z,94913
2018-03-14T02:54:06.038Z,94913
2018-03-14T02:56:34.520Z,94915
2018-03-14T03:11:58.455Z,94923
2018-03-14T03:14:26.557Z,94927
2018-03-14T03:16:58.192Z,94925
2018-03-14T03:19:29.841Z,94934
2018-03-14T03:22:01.792Z,94933
2018-03-14T03:24:29.896Z,94926
2018-03-14T03:26:59.757Z,94937
2018-03-14T03:29:28.377Z,94945
2018-03-14T03:31:56.479Z,94949
2018-03-14T03:34:24.599Z,94940
2018-03-14T03:36:53.486Z,94946
2018-03-14T03:52:16.623Z,94954
2018-03-14T03:54:48.924Z,94942
2018-03-14T03:57:21.411Z,94951
2018-03-14T03:59:49.523Z,94955
2018-03-14T04:02:17.631Z,94954
2018-03-14T04:04:45.801Z,94954
2018-03-14T04:07:14.323Z,94952
2018-03-14T04:09:42.562Z,94949
2018-03-14T04:12:10.683Z,94952
2018-03-14T04:14:38.835Z,94951
2018-03-14T04:17:07.004Z,94952
2018-03-14T04:19:35.295Z,94952
2018-03-14T04:22:03.517Z,94951
2018-03-14T04:24:31.734Z,94957
2018-03-14T04:27:00.001Z,94962
2018-03-14T04:29:28.286Z,94961
2018-03-14T04:31:56.568Z,94966
2018-03-14T04:34:24.723Z,94963
2018-03-14T04:36:53.284Z,94953
2018-03-14T04:39:26.266Z,94957
2018-03-14T04:54:50.325Z,94962
2018-03-14T04:57:18.456Z,94968
2018-03-14T04:59:47.350Z,94962
2018-03-14T05:02:15.519Z,94970
2018-03-14T05:04:43.663Z,94967
2018-03-14T05:07:11.841Z,94967
2018-03-14T05:09:40.019Z,94971
2018-03-14T05:12:08.213Z,94971
2018-03-14T05:14:36.335Z,94971
2018-03-14T05:17:04.951Z,94969
2018-03-14T05:19:33.049Z,94971
2018-03-14T05:22:01.879Z,94969
2018-03-14T05:24:30.284Z,94964
2018-03-14T05:26:58.752Z,94968
2018-03-14T05:29:27.829Z,94969
2018-03-14T05:31:56.528Z,94974
2018-03-14T05:34:24.673Z,94979
2018-03-14T05:36:52.933Z,94974
2018-03-14T05:39:21.854Z,94976
2018-03-14T05:41:49.982Z,94982
2018-03-14T05:44:18.114Z,94982
2018-03-14T05:46:46.242Z,94988
2018-03-14T05:49:15.135Z,94989
2018-03-14T05:51:43.278Z,94990
2018-03-14T05:54:15.887Z,94985
2018-03-14T05:56:44.038Z,94981
2018-03-14T05:59:12.192Z,94990
2018-03-14T06:01:40.333Z,94986
2018-03-14T06:04:08.425Z,94989
2018-03-14T06:06:36.550Z,94991
2018-03-14T06:09:04.665Z,94991
2018-03-14T06:11:33.369Z,95001
2018-03-14T06:14:01.585Z,94992
2018-03-14T06:16:29.748Z,95005
2018-03-14T06:18:57.941Z,95005
2018-03-14T06:21:26.211Z,95004
2018-03-14T06:23:55.093Z,94996
2018-03-14T06:39:18.273Z,95020
2018-03-14T06:41:46.400Z,95025
2018-03-14T06:44:15.301Z,95023
2018-03-14T06:46:44.209Z,95017
2018-03-14T06:49:13.061Z,95020
2018-03-14T06:51:43.849Z,95029
2018-03-14T06:54:13.182Z,95027
2018-03-14T06:56:41.306Z,95036
2018-03-14T06:59:27.138Z,95020
2018-03-14T07:02:13.470Z,95031
2018-03-14T07:05:12.918Z,95033
2018-03-14T07:07:41.071Z,95040
2018-03-14T07:10:09.171Z,95033
2018-03-14T07:12:37.291Z,95038
2018-03-14T07:15:06.026Z,95037
2018-03-14T07:17:34.225Z,95039
2018-03-14T07:20:03.326Z,95051
2018-03-14T07:22:31.784Z,95040
2018-03-14T07:24:59.880Z,95045
2018-03-14T07:27:27.969Z,95050
2018-03-14T07:29:56.144Z,95048
2018-03-14T07:32:24.376Z,95048
2018-03-14T07:34:52.731Z,95045
2018-03-14T07:37:20.857Z,95058
2018-03-14T07:39:49.067Z,95052
2018-03-14T07:42:17.233Z,95056
2018-03-14T07:44:45.325Z,95068
2018-03-14T07:47:13.587Z,95060
2018-03-14T07:49:41.847Z,95056
2018-03-14T07:52:09.989Z,95064
2018-03-14T07:54:38.089Z,95055
2018-03-14T07:57:06.971Z,95060
2018-03-14T07:59:35.083Z,95050
2018-03-14T08:02:03.195Z,95064
2018-03-14T08:04:31.373Z,95059
2018-03-14T08:06:59.477Z,95055
2018-03-14T08:09:27.619Z,95053
2018-03-14T08:11:55.711Z,95063
2018-03-14T08:14:23.843Z,95064
2018-03-14T08:16:52.866Z,95062
2018-03-14T08:19:20.992Z,95057
2018-03-14T08:21:49.092Z,95062
2018-03-14T08:24:17.196Z,95057
2018-03-14T08:26:46.084Z,95065
2018-03-14T08:29:14.204Z,95063
2018-03-14T08:31:42.392Z,95058
2018-03-14T08:34:10.556Z,95056
2018-03-14T08:36:38.674Z,95058
2018-03-14T08:39:06.800Z,95054
2018-03-14T08:41:35.027Z,95067
2018-03-14T08:44:03.130Z,95071
2018-03-14T08:46:31.258Z,95067
2018-03-14T08:48:59.364Z,95059
2018-03-14T08:51:27.456Z,95055
2018-03-14T08:53:55.588Z,95054
2018-03-14T08:56:23.764Z,95054
2018-03-14T08:58:51.956Z,95057
2018-03-14T09:01:20.897Z,95054
2018-03-14T09:03:49.872Z,95056
2018-03-14T09:06:17.958Z,95067
2018-03-14T09:08:46.094Z,95067
2018-03-14T09:11:14.305Z,95064
2018-03-14T09:13:42.683Z,95059
2018-03-14T09:16:10.808Z,95055
2018-03-14T09:18:39.025Z,95047
2018-03-14T09:21:07.265Z,95044
2018-03-14T09:23:35.512Z,95050
2018-03-14T09:26:03.762Z,95055
2018-03-14T09:28:32.109Z,95046
2018-03-14T09:31:00.293Z,95041
2018-03-14T09:33:28.421Z,95043
2018-03-14T09:35:56.558Z,95049
2018-03-14T09:38:24.741Z,95041
2018-03-14T09:40:52.853Z,95033
2018-03-14T09:43:20.967Z,95028
2018-03-14T09:45:49.083Z,95030
2018-03-14T09:48:17.965Z,95033
2018-03-14T09:50:46.893Z,95039
2018-03-14T09:53:15.079Z,95043
2018-03-14T09:55:43.222Z,95034
2018-03-14T09:58:11.350Z,95029
2018-03-14T10:00:39.510Z,95033
2018-03-14T10:03:07.611Z,95028
2018-03-14T10:05:35.720Z,95033
2018-03-14T10:08:03.864Z,95026
2018-03-14T10:10:32.030Z,95023
2018-03-14T10:13:00.144Z,95024
2018-03-14T10:15:28.236Z,95042
2018-03-14T10:17:56.342Z,95032
2018-03-14T10:20:24.714Z,95038
2018-03-14T10:22:52.900Z,95027
2018-03-14T10:25:21.002Z,95021
2018-03-14T10:27:49.116Z,95030
2018-03-14T10:30:17.296Z,95025
2018-03-14T10:32:45.411Z,95032
2018-03-14T10:35:13.528Z,95023
2018-03-14T10:37:41.631Z,95029
2018-03-14T10:40:09.781Z,95025
2018-03-14T10:42:37.875Z,95021
2018-03-14T10:45:05.985Z,95022
2018-03-14T10:47:34.089Z,95023
2018-03-14T10:50:02.237Z,95019
2018-03-14T10:52:30.473Z,95007
2018-03-14T10:54:58.641Z,95017
2018-03-14T10:57:26.813Z,95017
2018-03-14T10:59:54.919Z,95019
2018-03-14T11:02:30.211Z,95017
2018-03-14T11:04:58.332Z,95013
2018-03-14T11:07:26.463Z,95012
2018-03-14T11:09:58.929Z,95010
2018-03-14T11:12:27.365Z,95011
2018-03-14T11:14:56.232Z,95007
2018-03-14T11:17:24.343Z,94998
2018-03-14T11:19:52.447Z,94996
2018-03-14T11:22:20.531Z,95004
2018-03-14T11:24:48.641Z,94986
2018-03-14T11:27:16.738Z,94998
2018-03-14T11:29:44.967Z,94983
2018-03-14T11:32:13.156Z,94990
2018-03-14T11:34:42.050Z,94987
2018-03-14T11:37:10.946Z,94986
2018-03-14T11:39:39.036Z,94984
2018-03-14T11:42:07.217Z,94979
2018-03-14T11:44:35.363Z,94978
2018-03-14T11:47:03.484Z,94971
2018-03-14T11:49:31.573Z,94973
2018-03-14T11:51:59.713Z,94964
2018-03-14T11:54:27.820Z,94959
2018-03-14T11:56:56.018Z,94955
2018-03-14T11:59:24.141Z,94952
2018-03-14T12:01:52.247Z,94939
2018-03-14T12:04:20.355Z,94941
2018-03-14T12:06:48.493Z,94936
2018-03-14T12:09:16.671Z,94929
2018-03-14T12:11:44.865Z,94929
2018-03-14T12:14:13.057Z,94928
2018-03-14T12:16:41.158Z,94918
2018-03-14T12:19:09.309Z,94914
2018-03-14T12:21:37.421Z,94918
2018-03-14T12:24:05.533Z,94901
2018-03-14T12:26:33.687Z,94897
2018-03-14T12:29:01.877Z,94897
2018-03-14T12:31:30.198Z,94896
2018-03-14T12:33:58.392Z,94889
2018-03-14T12:36:26.664Z,94893
2018-03-14T12:38:59.054Z,94879
2018-03-14T12:41:27.996Z,94878
2018-03-14T12:43:56.232Z,94873
2018-03-14T12:46:24.469Z,94872
2018-03-14T12:48:52.870Z,94857
2018-03-14T12:51:21.002Z,94862
2018-03-14T12:53:49.194Z,94865
2018-03-14T12:56:17.750Z,94861
2018-03-14T12:58:46.338Z,94863
2018-03-14T13:01:14.462Z,94864
2018-03-14T13:03:42.606Z,94847
2018-03-14T13:06:10.768Z,94849
2018-03-14T13:08:38.874Z,94842
2018-03-14T13:11:07.022Z,94841
2018-03-14T13:13:35.222Z,94840
2018-03-14T13:16:03.431Z,94840
2018-03-14T13:18:31.680Z,94842
2018-03-14T13:20:59.839Z,94843
2018-03-14T13:23:28.019Z,94842
2018-03-14T13:25:56.167Z,94841
2018-03-14T13:28:24.267Z,94845
2018-03-14T13:30:52.411Z,94832
2018-03-14T13:33:20.523Z,94833
2018-03-14T13:35:49.043Z,94829
2018-03-14T13:38:17.236Z,94823
2018-03-14T13:40:45.336Z,94814
2018-03-14T13:43:13.513Z,94816
2018-03-14T13:58:36.736Z,94804
2018-03-14T14:01:05.062Z,94799
2018-03-14T14:03:34.080Z,94797
2018-03-14T14:06:02.224Z,94788
2018-03-14T14:08:30.501Z,94784
2018-03-14T14:10:58.678Z,94785
2018-03-14T14:13:26.797Z,94781
2018-03-14T14:15:55.755Z,94775
2018-03-14T14:18:24.552Z,94784
2018-03-14T14:20:54.062Z,94782
2018-03-14T14:23:26.290Z,94770
2018-03-14T14:25:54.418Z,94770
2018-03-14T14:28:22.701Z,94774
2018-03-14T14:30:50.953Z,94758
2018-03-14T14:33:19.090Z,94754
2018-03-14T14:35:47.285Z,94735
2018-03-14T14:38:15.585Z,94746
2018-03-14T14:40:43.819Z,94745
2018-03-14T14:43:12.060Z,94750
2018-03-14T14:45:40.273Z,94744
2018-03-14T14:48:09.097Z,94735
2018-03-14T14:50:37.549Z,94740
2018-03-14T14:53:05.769Z,94742
2018-03-14T14:55:35.274Z,94745
2018-03-14T14:58:04.264Z,94748
2018-03-14T15:00:32.384Z,94732
2018-03-14T15:03:00.528Z,94732
2018-03-14T15:05:29.387Z,94728
2018-03-14T15:07:57.564Z,94718
2018-03-14T15:10:25.813Z,94712
2018-03-14T15:12:53.977Z,94725
2018-03-14T15:15:22.938Z,94723
2018-03-14T15:17:51.158Z,94722
2018-03-14T15:20:19.267Z,94718
2018-03-14T15:22:47.730Z,94711
2018-03-14T15:25:15.867Z,94715
2018-03-14T15:27:48.265Z,94706
2018-03-14T15:30:16.913Z,94697
2018-03-14T15:32:45.099Z,94689
2018-03-14T15:35:14.178Z,94697
2018-03-14T15:37:42.368Z,94692
2018-03-14T15:40:11.431Z,94683
2018-03-14T15:42:44.240Z,94690
2018-03-14T15:45:12.491Z,94689
2018-03-14T16:00:35.715Z,94680
2018-03-14T16:03:08.007Z,94668
2018-03-14T16:05:36.188Z,94667
2018-03-14T16:08:04.391Z,94669
2018-03-14T16:10:32.517Z,94662
2018-03-14T16:13:05.217Z,94667
2018-03-14T16:15:33.454Z,94659
2018-03-14T16:18:02.046Z,94658
2018-03-14T16:20:31.132Z,94651
2018-03-14T16:22:59.800Z,94656
2018-03-14T16:25:27.940Z,94652
2018-03-14T16:27:56.104Z,94653
2018-03-14T16:30:25.241Z,94660
2018-03-14T16:32:57.645Z,94646
2018-03-14T16:35:25.786Z,94657
2018-03-14T16:37:53.918Z,94642
2018-03-14T16:40:22.118Z,94649
2018-03-14T16:42:50.600Z,94648
2018-03-14T16:45:18.800Z,94646
2018-03-14T16:47:46.943Z,94647
2018-03-14T16:50:15.163Z,94651
2018-03-14T16:52:43.438Z,94656
2018-03-14T16:55:11.950Z,94650
2018-03-14T17:10:35.244Z,94644
2018-03-14T17:13:03.459Z,94645
2018-03-14T17:15:31.769Z,94647
2018-03-14T17:17:59.863Z,94658
2018-03-14T17:20:28.304Z,94645
2018-03-14T17:22:56.517Z,94650
2018-03-14T17:25:25.545Z,94642
2018-03-14T17:27:53.671Z,94653
2018-03-14T17:30:21.811Z,94652
2018-03-14T17:32:50.097Z,94649
2018-03-14T17:35:18.655Z,94658
2018-03-14T17:37:46.928Z,94653
2018-03-14T17:40:15.248Z,94650
2018-03-14T17:42:43.406Z,94650
2018-03-14T17:45:11.601Z,94654
2018-03-14T17:47:39.871Z,94646
2018-03-14T17:50:12.253Z,94652
2018-03-14T17:52:40.537Z,94641
2018-03-14T17:55:08.788Z,94640
2018-03-14T17:57:36.921Z,94635
2018-03-14T18:00:05.121Z,94638
2018-03-14T18:02:33.814Z,94641
2018-03-14T18:05:01.922Z,94644
2018-03-14T18:07:30.078Z,94644
2018-03-14T18:09:58.275Z,94645
2018-03-14T18:12:26.404Z,94639
2018-03-14T18:14:54.531Z,94646
2018-03-14T18:17:22.742Z,94641
2018-03-14T18:19:51.090Z,94641
2018-03-14T18:22:19.199Z,94635
2018-03-14T18:24:47.306Z,94632
2018-03-14T18:27:15.410Z,94637
2018-03-14T18:29:43.536Z,94635
2018-03-14T18:32:11.656Z,94630
2018-03-14T18:34:40.132Z,94630
2018-03-14T18:37:17.313Z,94622
2018-03-14T18:39:47.358Z,94621
2018-03-14T18:42:15.462Z,94615
2018-03-14T18:44:43.658Z,94618
2018-03-14T18:47:12.494Z,94618
2018-03-14T18:49:40.599Z,94624
2018-03-14T18:52:08.749Z,94623
2018-03-14T18:54:36.921Z,94634
2018-03-14T18:57:05.059Z,94621
2018-03-14T18:59:33.366Z,94609
2018-03-14T19:02:01.503Z,94617
2018-03-14T19:04:29.631Z,94612
2018-03-14T19:06:57.739Z,94603
2018-03-14T19:09:25.858Z,94593
2018-03-14T19:11:53.996Z,94595
2018-03-14T19:14:22.111Z,94589
2018-03-14T19:16:50.286Z,94590
2018-03-14T19:19:18.433Z,94584
2018-03-14T19:21:46.622Z,94589
2018-03-14T19:24:14.777Z,94587
2018-03-14T19:26:42.922Z,94589
2018-03-14T19:29:11.046Z,94586
2018-03-14T19:31:39.160Z,94580
2018-03-14T19:34:07.272Z,94585
2018-03-14T19:36:35.466Z,94586
2018-03-14T19:39:03.773Z,94577
2018-03-14T19:41:32.488Z,94583
2018-03-14T19:44:00.629Z,94579
2018-03-14T19:46:28.756Z,94582
2018-03-14T19:48:56.926Z,94580
2018-03-14T19:51:25.052Z,94584
2018-03-14T19:53:53.164Z,94581
2018-03-14T19:56:22.382Z,94586
2018-03-14T19:58:50.483Z,94582
2018-03-14T20:01:18.592Z,94579
2018-03-14T20:03:46.710Z,94594
2018-03-14T20:06:15.414Z,94591
2018-03-14T20:08:44.361Z,94577
2018-03-14T20:11:12.491Z,94582
2018-03-14T20:13:40.612Z,94584
2018-03-14T20:16:08.720Z,94583
2018-03-14T20:18:36.842Z,94581
2018-03-14T20:21:05.051Z,94573
2018-03-14T20:23:33.146Z,94575
2018-03-14T20:26:01.359Z,94579
2018-03-14T20:28:29.557Z,94574
2018-03-14T20:30:57.796Z,94570
2018-03-14T20:33:26.746Z,94572
2018-03-14T20:35:54.949Z,94565
2018-03-14T20:38:23.121Z,94574
2018-03-14T20:40:51.232Z,94564
2018-03-14T20:43:19.355Z,94575
2018-03-14T20:45:47.486Z,94574
2018-03-14T20:48:16.376Z,94571
2018-03-14T20:50:45.365Z,94567
2018-03-14T20:53:13.635Z,94565
2018-03-14T20:55:41.752Z,94555
2018-03-14T20:58:10.667Z,94555
2018-03-14T21:00:38.806Z,94560
2018-03-14T21:03:06.931Z,94565
2018-03-14T21:05:35.118Z,94572
2018-03-14T21:08:03.411Z,94562
2018-03-14T21:10:31.532Z,94563
2018-03-14T21:12:59.668Z,94554
2018-03-14T21:15:28.388Z,94552
2018-03-14T21:17:57.615Z,94549
2018-03-14T21:20:25.740Z,94534
2018-03-14T21:22:54.658Z,94540
2018-03-14T21:25:22.817Z,94531
2018-03-14T21:27:50.936Z,94543
2018-03-14T21:30:19.060Z,94536
2018-03-14T21:32:47.182Z,94539
2018-03-14T21:35:15.361Z,94529
2018-03-14T21:37:43.505Z,94526
2018-03-14T21:40:11.626Z,94526
2018-03-14T21:42:39.796Z,94527
2018-03-14T21:45:07.926Z,94519
2018-03-14T21:47:36.068Z,94509
2018-03-14T21:50:04.263Z,94502
2018-03-14T21:52:33.914Z,94509
2018-03-14T21:55:02.296Z,94515
2018-03-14T22:07:11.352Z,94500
2018-03-14T22:09:39.551Z,94498
2018-03-14T22:12:08.289Z,94495
2018-03-14T22:14:36.473Z,94494
2018-03-14T22:17:04.694Z,94479
2018-03-14T22:19:33.030Z,94484
2018-03-14T22:22:01.205Z,94486
2018-03-14T22:24:29.545Z,94486
2018-03-14T22:26:57.685Z,94473
2018-03-14T22:29:25.845Z,94472
2018-03-14T22:31:54.311Z,94474
2018-03-14T22:34:23.658Z,94472
2018-03-14T22:36:52.109Z,94465
2018-03-14T22:39:20.270Z,94465
2018-03-14T22:41:48.384Z,94464
2018-03-14T22:44:17.400Z,94459
2018-03-14T22:46:45.554Z,94455
2018-03-14T22:49:13.718Z,94453
2018-03-14T22:51:41.846Z,94451
2018-03-14T22:54:10.056Z,94442
2018-03-14T22:56:38.316Z,94442
2018-03-14T22:59:06.464Z,94434
2018-03-14T23:01:34.597Z,94438
2018-03-14T23:04:02.714Z,94441
2018-03-14T23:06:30.857Z,94439
2018-03-14T23:08:58.975Z,94434
2018-03-14T23:11:27.088Z,94432
2018-03-14T23:13:55.244Z,94427
2018-03-14T23:16:23.458Z,94426
2018-03-14T23:18:51.623Z,94407
2018-03-14T23:21:19.749Z,94409
2018-03-14T23:23:47.932Z,94396
2018-03-14T23:26:16.063Z,94394
2018-03-14T23:28:45.003Z,94396
2018-03-14T23:31:13.131Z,94389
2018-03-14T23:33:41.257Z,94387
2018-03-14T23:36:09.413Z,94389
2018-03-14T23:38:37.529Z,94387
2018-03-14T23:41:05.794Z,94384
2018-03-14T23:43:34.040Z,94368
2018-03-14T23:46:02.141Z,94360
2018-03-14T23:48:30.279Z,94360
2018-03-14T23:50:59.382Z,94360
2018-03-14T23:53:28.367Z,94361
2018-03-14T23:55:56.477Z,94348
2018-03-14T23:58:24.650Z,94350
